Time;durP1;ratioP1;P1;durP2;ratioP2;P2;SDS_P1;SDS_P2;PMS_P1;PMS_P2;Temp;Humidity;BMP_temperature;BMP_pressure;BME280_temperature;BME280_humidity;BME280_pressure;Samples;Min_cycle;Max_cycle;Signal;HPM_P1;HPM_P2
2021/11/30 00:01:45;;;;;;;4.03;3.63;;;;;;;1.95;77.44;95291.28;4972240;28;20196;-82
2021/11/30 00:04:19;;;;;;;5.53;4.17;;;;;;;1.91;78.02;95297.56;4973197;28;20306;-84
2021/11/30 00:06:52;;;;;;;4.37;3.97;;;;;;;1.83;78.76;95299.94;4972140;28;20227;-84
2021/11/30 00:12:10;;;;;;;4.63;3.60;;;;;;;1.92;78.50;95311.06;4952063;28;20711;-84
2021/11/30 00:14:47;;;;;;;3.50;3.20;;;;;;;1.84;78.54;95321.03;4972955;28;20242;-82
2021/11/30 00:17:24;;;;;;;4.60;3.53;;;;;;;1.89;78.43;95309.56;4972299;28;20204;-83
2021/11/30 00:19:59;;;;;;;3.93;3.53;;;;;;;1.91;78.33;95314.53;4973460;28;20211;-84
2021/11/30 00:25:26;;;;;;;2.97;2.67;;;;;;;1.92;77.80;95316.13;4965235;28;20231;-84
2021/11/30 00:28:12;;;;;;;4.93;3.70;;;;;;;1.91;77.44;95317.88;4966070;28;20220;-83
2021/11/30 00:31:06;;;;;;;3.43;3.10;;;;;;;1.88;77.18;95319.84;4957109;28;20192;-82
2021/11/30 00:36:30;;;;;;;2.90;2.70;;;;;;;1.91;77.50;95325.47;4970938;28;20243;-83
2021/11/30 00:38:59;;;;;;;3.47;2.80;;;;;;;1.89;77.57;95334.16;4968759;28;20201;-84
2021/11/30 00:41:33;;;;;;;2.80;2.60;;;;;;;1.82;78.28;95327.97;4972613;28;20255;-85
2021/11/30 00:44:14;;;;;;;3.33;2.77;;;;;;;1.83;78.47;95334.66;4972128;28;20227;-82
2021/11/30 00:49:43;;;;;;;2.83;2.50;;;;;;;1.78;79.57;95335.03;4973037;28;20208;-84
2021/11/30 00:52:33;;;;;;;2.80;2.60;;;;;;;1.78;79.48;95345.19;4972603;28;20227;-85
2021/11/30 00:54:59;;;;;;;3.17;2.77;;;;;;;1.70;79.82;95345.84;4972033;28;20235;-82
2021/11/30 00:57:38;;;;;;;3.87;3.37;;;;;;;1.67;81.04;95342.78;4973989;28;20349;-81
2021/11/30 01:00:27;;;;;;;2.90;2.60;;;;;;;1.69;80.97;95349.31;4973867;28;20196;-85
2021/11/30 01:03:05;;;;;;;3.10;2.80;;;;;;;1.85;80.25;95353.09;4973988;28;20224;-83
2021/11/30 01:06:08;;;;;;;3.60;2.87;;;;;;;1.85;81.11;95348.84;4970221;28;20235;-84
2021/11/30 01:08:37;;;;;;;3.23;2.93;;;;;;;1.78;82.48;95354.53;4954114;28;20220;-85
2021/11/30 01:11:14;;;;;;;4.23;3.27;;;;;;;1.72;84.44;95361.75;4959129;28;20211;-84
2021/11/30 01:13:42;;;;;;;3.27;2.97;;;;;;;1.82;83.89;95369.41;4974272;28;20226;-82
2021/11/30 01:16:11;;;;;;;3.80;3.10;;;;;;;1.75;82.87;95368.28;4962756;28;20254;-83
2021/11/30 01:18:43;;;;;;;3.47;3.00;;;;;;;1.79;82.06;95362.03;4976374;28;20204;-84
2021/11/30 01:21:10;;;;;;;4.70;3.53;;;;;;;1.82;81.87;95366.06;4973156;28;21100;-83
2021/11/30 01:23:38;;;;;;;2.70;2.50;;;;;;;1.79;80.79;95356.97;4974204;28;20231;-84
2021/11/30 01:26:20;;;;;;;4.57;3.13;;;;;;;1.78;80.74;95359.63;4973733;28;20228;-83
2021/11/30 01:28:58;;;;;;;2.80;2.60;;;;;;;1.83;80.63;95365.13;4973789;28;20290;-82
2021/11/30 01:31:29;;;;;;;2.83;2.53;;;;;;;1.80;80.01;95366.19;4973310;28;20467;-83
2021/11/30 01:34:17;;;;;;;3.87;2.77;;;;;;;1.78;79.76;95365.50;4973382;28;20224;-85
2021/11/30 01:36:53;;;;;;;3.23;2.83;;;;;;;1.81;79.92;95369.53;4977648;28;20785;-85
2021/11/30 01:39:22;;;;;;;2.77;2.43;;;;;;;1.84;79.96;95370.06;4974188;28;20247;-83
2021/11/30 01:42:11;;;;;;;2.90;2.60;;;;;;;1.87;79.77;95371.56;4977273;28;20249;-83
2021/11/30 01:45:06;;;;;;;3.93;2.70;;;;;;;1.91;79.71;95378.78;4968141;28;20755;-84
2021/11/30 01:48:10;;;;;;;3.27;2.60;;;;;;;1.71;80.64;95372.84;4987429;28;20210;-83
2021/11/30 01:50:43;;;;;;;3.03;2.67;;;;;;;1.88;79.76;95378.25;4975248;28;20195;-84
2021/11/30 01:53:11;;;;;;;2.90;2.20;;;;;;;1.83;79.33;95377.81;4977110;28;20228;-84
2021/11/30 01:55:43;;;;;;;3.53;2.37;;;;;;;1.90;79.52;95366.22;4974993;28;20234;-84
2021/11/30 01:58:23;;;;;;;3.33;2.60;;;;;;;1.86;79.31;95368.22;4967523;28;20605;-83
2021/11/30 02:01:09;;;;;;;6.60;2.50;;;;;;;1.87;79.42;95372.34;4968053;28;20203;-83
2021/11/30 02:03:45;;;;;;;2.37;2.17;;;;;;;1.92;79.33;95367.72;4976482;28;20315;-84
2021/11/30 02:06:21;;;;;;;3.47;2.70;;;;;;;1.91;78.86;95378.78;4977906;28;20231;-84
2021/11/30 02:08:53;;;;;;;2.40;2.20;;;;;;;1.89;79.74;95364.63;4960791;28;20881;-84
2021/11/30 02:11:30;;;;;;;2.30;2.10;;;;;;;1.92;79.62;95367.72;4975110;28;20231;-83
2021/11/30 02:14:08;;;;;;;2.40;2.20;;;;;;;1.76;80.46;95377.50;4975593;28;20212;-84
2021/11/30 02:17:05;;;;;;;2.37;2.17;;;;;;;1.89;81.24;95370.50;4980416;28;20241;-83
2021/11/30 02:19:46;;;;;;;2.60;2.40;;;;;;;1.92;81.34;95367.72;4902415;28;20243;-84
2021/11/30 02:22:54;;;;;;;2.47;2.27;;;;;;;1.97;81.35;95362.22;4957822;28;20276;-84
2021/11/30 02:25:28;;;;;;;2.37;2.03;;;;;;;1.86;81.27;95354.72;4946105;28;20233;-83
2021/11/30 02:28:09;;;;;;;2.23;1.93;;;;;;;1.91;81.21;95347.53;4970697;28;20224;-84
2021/11/30 02:30:57;;;;;;;2.47;1.90;;;;;;;1.93;80.39;95360.88;4971505;28;20204;-83
2021/11/30 02:33:33;;;;;;;2.20;2.00;;;;;;;1.84;80.83;95352.31;4974431;28;20224;-84
2021/11/30 02:36:23;;;;;;;2.23;2.03;;;;;;;1.86;80.62;95354.72;4973546;28;20603;-84
2021/11/30 02:39:16;;;;;;;3.03;2.27;;;;;;;1.93;80.30;95354.06;4974037;28;20208;-82
2021/11/30 02:42:17;;;;;;;2.30;2.10;;;;;;;1.88;80.43;95360.47;4973366;28;20204;-84
2021/11/30 02:45:11;;;;;;;2.23;2.03;;;;;;;1.94;80.26;95354.84;4951813;28;20320;-83
2021/11/30 02:47:42;;;;;;;2.10;1.90;;;;;;;1.93;80.75;95360.88;4964901;28;20304;-84
2021/11/30 02:50:19;;;;;;;2.30;2.10;;;;;;;1.79;81.59;95358.69;4973331;28;20204;-82
2021/11/30 02:53:01;;;;;;;2.37;1.87;;;;;;;1.84;81.71;95357.38;4973702;28;20270;-82
2021/11/30 02:55:27;;;;;;;2.10;1.90;;;;;;;1.87;81.60;95362.19;4973592;28;20247;-84
2021/11/30 02:57:55;;;;;;;2.67;2.17;;;;;;;1.90;82.35;95358.63;4973845;28;20196;-85
2021/11/30 03:00:22;;;;;;;2.03;1.83;;;;;;;1.84;81.63;95370.06;4975152;28;20276;-84
2021/11/30 03:02:49;;;;;;;2.37;2.17;;;;;;;1.86;82.19;95370.75;4974953;28;20636;-84
2021/11/30 03:05:15;;;;;;;2.23;2.00;;;;;;;1.88;82.18;95363.81;4973819;28;20603;-84
2021/11/30 03:07:42;;;;;;;2.30;2.10;;;;;;;1.90;82.20;95363.69;4974214;28;20266;-84
2021/11/30 03:10:15;;;;;;;2.30;2.10;;;;;;;1.92;81.70;95380.41;4974228;28;20212;-82
2021/11/30 03:12:41;;;;;;;2.30;2.10;;;;;;;1.97;81.60;95367.28;4959053;28;20215;-84
2021/11/30 03:15:12;;;;;;;2.50;2.30;;;;;;;1.95;81.79;95369.16;4973221;28;20270;-85
2021/11/30 03:17:38;;;;;;;2.20;2.03;;;;;;;1.94;81.59;95370.88;4973586;28;20207;-84
2021/11/30 03:20:07;;;;;;;2.20;2.00;;;;;;;1.98;81.15;95363.81;4973525;28;20196;-84
2021/11/30 03:22:33;;;;;;;2.40;2.20;;;;;;;2.04;80.39;95363.31;4973658;28;20207;-83
2021/11/30 03:25:00;;;;;;;2.50;2.20;;;;;;;2.09;80.31;95371.34;4973145;28;20231;-82
2021/11/30 03:27:26;;;;;;;3.33;2.37;;;;;;;1.98;80.26;95368.91;4973297;28;20219;-82
2021/11/30 03:29:53;;;;;;;2.40;2.20;;;;;;;1.91;80.17;95375.44;4972951;28;20220;-82
2021/11/30 03:35:03;;;;;;;3.50;2.33;;;;;;;2.00;79.68;95367.84;4968493;28;20236;-84
2021/11/30 03:37:30;;;;;;;2.53;2.33;;;;;;;2.11;79.27;95366.16;4973098;28;20196;-84
2021/11/30 03:39:57;;;;;;;2.60;2.20;;;;;;;2.08;79.14;95364.66;4973641;28;20203;-85
2021/11/30 03:42:23;;;;;;;3.07;2.30;;;;;;;2.03;79.02;95374.41;4973056;28;20279;-82
2021/11/30 03:44:50;;;;;;;2.43;2.23;;;;;;;1.98;79.27;95369.72;4972591;28;20235;-82
2021/11/30 03:47:17;;;;;;;2.43;2.23;;;;;;;1.96;79.30;95363.94;4973492;28;20207;-84
2021/11/30 03:49:44;;;;;;;2.00;1.90;;;;;;;1.94;79.07;95370.09;4973006;28;20259;-84
2021/11/30 03:52:11;;;;;;;3.00;2.33;;;;;;;1.90;78.78;95373.84;4972682;28;20708;-82
2021/11/30 03:54:37;;;;;;;3.20;1.90;;;;;;;1.97;78.52;95383.34;4972723;28;20271;-84
2021/11/30 03:57:04;;;;;;;4.27;2.20;;;;;;;2.02;77.75;95376.13;4972384;28;20223;-82
2021/11/30 03:59:31;;;;;;;3.27;2.10;;;;;;;2.10;77.80;95382.31;4972812;28;20196;-84
2021/11/30 04:01:57;;;;;;;4.23;2.13;;;;;;;2.16;77.51;95379.25;4972403;28;20193;-84
2021/11/30 04:04:25;;;;;;;3.17;1.90;;;;;;;2.06;77.94;95391.94;4971881;28;20282;-82
2021/11/30 04:06:54;;;;;;;2.27;2.07;;;;;;;2.15;77.87;95387.78;4972935;28;20203;-83
2021/11/30 04:09:22;;;;;;;2.20;1.90;;;;;;;2.18;78.35;95397.69;4972870;28;20227;-82
2021/11/30 04:11:50;;;;;;;2.00;1.90;;;;;;;2.07;78.31;95391.00;4973183;28;20282;-82
2021/11/30 04:14:17;;;;;;;2.60;1.90;;;;;;;2.01;78.39;95391.50;4971981;28;20220;-82
2021/11/30 04:16:44;;;;;;;2.20;2.00;;;;;;;2.07;79.04;95385.91;4972755;28;20258;-84
2021/11/30 04:19:11;;;;;;;2.27;2.07;;;;;;;2.12;78.54;95380.47;4974829;28;20196;-83
2021/11/30 04:21:37;;;;;;;3.70;2.13;;;;;;;2.16;77.59;95387.66;4974973;28;20216;-84
2021/11/30 04:24:06;;;;;;;2.73;1.90;;;;;;;2.19;77.85;95386.59;4973978;28;20216;-84
2021/11/30 04:26:32;;;;;;;2.70;2.00;;;;;;;2.08;77.26;95379.91;4974159;28;20267;-83
2021/11/30 04:28:59;;;;;;;2.70;2.00;;;;;;;2.10;77.05;95395.00;4973894;28;20231;-84
2021/11/30 04:31:27;;;;;;;2.30;1.93;;;;;;;2.04;76.91;95398.88;4974999;28;20231;-84
2021/11/30 04:33:53;;;;;;;2.80;2.07;;;;;;;2.08;77.06;95387.53;4973491;28;20230;-84
2021/11/30 04:36:20;;;;;;;2.43;1.73;;;;;;;2.05;76.75;95400.47;4974035;28;20231;-83
2021/11/30 04:38:46;;;;;;;2.27;2.07;;;;;;;1.99;76.60;95385.75;4974141;28;20285;-82
2021/11/30 04:41:14;;;;;;;2.40;2.20;;;;;;;2.07;76.26;95379.09;4973547;28;20204;-83
2021/11/30 04:43:43;;;;;;;2.33;1.97;;;;;;;2.11;75.68;95383.94;4973522;28;20602;-83
2021/11/30 04:46:14;;;;;;;2.10;1.90;;;;;;;2.07;74.85;95385.91;4973758;28;20232;-84
2021/11/30 04:48:51;;;;;;;2.50;1.90;;;;;;;2.13;74.93;95397.28;4973332;28;20220;-85
2021/11/30 04:51:17;;;;;;;2.57;1.83;;;;;;;2.22;74.39;95393.97;4973649;28;20208;-83
2021/11/30 04:53:45;;;;;;;3.30;1.93;;;;;;;2.13;74.14;95387.13;4972626;28;20267;-82
2021/11/30 04:56:16;;;;;;;3.80;2.13;;;;;;;2.17;74.54;95396.09;4972495;28;20278;-84
2021/11/30 04:58:42;;;;;;;2.57;2.23;;;;;;;2.08;74.68;95402.75;4972516;28;20216;-84
2021/11/30 05:01:09;;;;;;;2.40;2.03;;;;;;;2.08;74.51;95401.03;4973295;28;20934;-84
2021/11/30 05:03:36;;;;;;;2.93;2.00;;;;;;;2.19;74.32;95401.84;4972162;28;20224;-84
2021/11/30 05:06:02;;;;;;;2.20;2.00;;;;;;;2.09;74.04;95396.75;4972270;28;20232;-85
2021/11/30 05:08:30;;;;;;;2.23;2.00;;;;;;;2.12;74.93;95396.47;4974010;28;20209;-84
2021/11/30 05:10:56;;;;;;;3.80;2.60;;;;;;;2.11;75.06;95394.88;4975872;28;20231;-83
2021/11/30 05:13:24;;;;;;;2.23;2.03;;;;;;;2.06;74.33;95387.66;4975824;28;20228;-84
2021/11/30 05:15:50;;;;;;;2.30;2.10;;;;;;;2.11;73.90;95386.47;4978490;28;20294;-83
2021/11/30 05:18:17;;;;;;;2.53;1.83;;;;;;;2.17;73.33;95396.09;4979781;28;20228;-83
2021/11/30 05:20:45;;;;;;;2.60;2.00;;;;;;;2.14;73.06;95397.13;4979109;28;20200;-84
2021/11/30 05:23:14;;;;;;;2.63;2.20;;;;;;;2.08;73.10;95395.16;4976415;28;20259;-85
2021/11/30 05:25:41;;;;;;;3.03;2.17;;;;;;;2.04;72.45;95396.31;4975424;28;20639;-84
2021/11/30 05:28:08;;;;;;;1.90;1.73;;;;;;;2.14;72.22;95388.72;4975664;28;20200;-84
2021/11/30 05:30:38;;;;;;;3.00;2.00;;;;;;;2.12;72.13;95390.63;4975867;28;20226;-85
2021/11/30 05:33:06;;;;;;;2.30;2.10;;;;;;;2.04;71.50;95383.63;4975605;28;20238;-84
2021/11/30 05:35:33;;;;;;;3.27;2.20;;;;;;;2.06;72.03;95386.84;4974512;28;20228;-84
2021/11/30 05:38:00;;;;;;;4.67;2.37;;;;;;;2.01;71.16;95399.13;4975222;28;20208;-85
2021/11/30 05:40:27;;;;;;;2.47;2.27;;;;;;;1.99;71.47;95390.81;4975880;28;20679;-84
2021/11/30 05:42:54;;;;;;;3.07;2.17;;;;;;;1.99;71.33;95385.75;4975467;28;20216;-85
2021/11/30 05:45:21;;;;;;;2.20;2.00;;;;;;;1.98;70.93;95399.38;4973314;28;20232;-85
2021/11/30 05:47:49;;;;;;;3.33;2.20;;;;;;;1.94;71.11;95372.63;4971209;28;20204;-82
2021/11/30 05:50:16;;;;;;;2.33;2.10;;;;;;;1.95;71.52;95385.19;4975336;28;20239;-83
2021/11/30 05:52:42;;;;;;;2.17;1.97;;;;;;;1.98;71.56;95373.97;4973415;28;20208;-83
2021/11/30 05:55:09;;;;;;;4.60;1.77;;;;;;;1.92;70.94;95385.47;4974471;28;20227;-84
2021/11/30 05:57:37;;;;;;;4.63;2.17;;;;;;;2.04;70.96;95381.09;4974536;28;20566;-83
2021/11/30 06:00:05;;;;;;;2.70;1.93;;;;;;;2.04;71.12;95373.47;4974901;28;20231;-82
2021/11/30 06:02:39;;;;;;;2.40;2.20;;;;;;;2.03;71.14;95372.66;4974551;28;20211;-83
2021/11/30 06:05:08;;;;;;;3.73;2.17;;;;;;;1.98;71.07;95368.91;4974261;28;20632;-84
2021/11/30 06:07:34;;;;;;;3.30;2.17;;;;;;;1.98;71.59;95353.66;4975445;28;20212;-83
2021/11/30 06:10:01;;;;;;;1.93;1.80;;;;;;;1.93;71.72;95354.06;4974841;28;20259;-83
2021/11/30 06:12:27;;;;;;;2.93;2.20;;;;;;;1.94;71.85;95353.13;4975007;28;20200;-83
2021/11/30 06:14:54;;;;;;;2.70;2.50;;;;;;;1.96;71.70;95360.63;4975060;28;20232;-83
2021/11/30 06:17:20;;;;;;;3.03;2.13;;;;;;;1.93;71.85;95366.75;4976631;28;20204;-83
2021/11/30 06:19:46;;;;;;;3.53;2.30;;;;;;;1.87;71.78;95348.72;4976025;28;20826;-82
2021/11/30 06:22:14;;;;;;;3.27;2.30;;;;;;;1.93;71.92;95354.06;4975194;28;20275;-82
2021/11/30 06:24:41;;;;;;;3.00;2.40;;;;;;;1.95;71.40;95359.00;4974564;28;20228;-84
2021/11/30 06:27:07;;;;;;;3.90;2.23;;;;;;;1.97;71.66;95363.03;4975712;28;20208;-82
2021/11/30 06:29:33;;;;;;;3.60;1.97;;;;;;;1.84;71.61;95372.59;4975218;28;20593;-83
2021/11/30 06:32:00;;;;;;;2.60;2.40;;;;;;;1.92;71.32;95366.91;4974388;28;20215;-83
2021/11/30 06:34:26;;;;;;;3.70;2.40;;;;;;;1.86;71.25;95347.91;4974366;28;20228;-82
2021/11/30 06:36:53;;;;;;;2.77;2.30;;;;;;;1.92;71.73;95352.47;4974945;28;20232;-83
2021/11/30 06:39:21;;;;;;;4.43;2.20;;;;;;;1.93;71.66;95361.66;4974681;28;20200;-83
2021/11/30 06:41:47;;;;;;;2.40;2.20;;;;;;;2.04;71.05;95359.03;4974714;28;20211;-84
2021/11/30 06:44:14;;;;;;;4.10;2.33;;;;;;;1.93;71.56;95353.25;4975041;28;20224;-83
2021/11/30 06:46:40;;;;;;;5.03;2.60;;;;;;;1.86;71.08;95349.63;4974232;28;20263;-83
2021/11/30 06:49:07;;;;;;;7.13;2.30;;;;;;;1.91;70.76;95368.63;4975657;28;20208;-83
2021/11/30 06:51:33;;;;;;;2.70;2.20;;;;;;;1.90;71.61;95376.38;4975377;28;20208;-83
2021/11/30 06:53:59;;;;;;;6.43;2.77;;;;;;;1.86;71.12;95357.25;4975674;28;20258;-84
2021/11/30 06:56:28;;;;;;;2.47;2.23;;;;;;;1.86;70.99;95367.41;4974697;28;20239;-85
2021/11/30 06:58:54;;;;;;;3.30;2.30;;;;;;;1.96;71.12;95353.78;4975215;28;20208;-83
2021/11/30 07:01:21;;;;;;;2.50;2.30;;;;;;;1.99;70.38;95371.31;4975719;28;20214;-83
2021/11/30 07:03:48;;;;;;;2.63;2.13;;;;;;;1.88;70.59;95370.63;4975667;28;20220;-83
2021/11/30 07:06:22;;;;;;;4.97;2.20;;;;;;;1.98;70.69;95362.09;4974610;28;20315;-84
2021/11/30 07:08:53;;;;;;;2.53;2.13;;;;;;;1.94;70.12;95365.00;4977243;28;20205;-84
2021/11/30 07:11:21;;;;;;;3.80;2.20;;;;;;;1.90;69.79;95344.19;4976431;28;20255;-84
2021/11/30 07:13:50;;;;;;;3.10;1.90;;;;;;;1.95;69.29;95357.28;4976004;28;20453;-85
2021/11/30 07:16:16;;;;;;;2.13;1.93;;;;;;;2.06;69.28;95353.84;4975659;28;20231;-83
2021/11/30 07:18:43;;;;;;;2.50;2.20;;;;;;;2.05;68.77;95342.88;4977285;28;20681;-84
2021/11/30 07:21:10;;;;;;;2.87;2.20;;;;;;;2.20;68.90;95339.97;4976150;28;20208;-82
2021/11/30 07:23:36;;;;;;;2.07;1.97;;;;;;;2.29;68.00;95350.16;4975850;28;20240;-85
2021/11/30 07:26:03;;;;;;;2.13;1.97;;;;;;;2.21;67.17;95355.06;4975935;28;20239;-83
2021/11/30 07:28:32;;;;;;;3.97;2.10;;;;;;;2.23;66.88;95350.66;4976469;28;20215;-84
2021/11/30 07:31:03;;;;;;;3.20;2.00;;;;;;;2.15;66.52;95337.00;4975558;28;20627;-83
2021/11/30 07:33:32;;;;;;;2.60;2.00;;;;;;;2.12;66.48;95332.22;4977010;28;20377;-84
2021/11/30 07:35:58;;;;;;;3.73;1.70;;;;;;;2.05;66.57;95335.25;4974724;28;20806;-84
2021/11/30 07:38:25;;;;;;;3.13;1.93;;;;;;;2.13;66.50;95338.88;4973487;28;20193;-83
2021/11/30 07:40:51;;;;;;;2.30;2.00;;;;;;;2.01;66.27;95330.56;4973768;28;20200;-84
2021/11/30 07:43:17;;;;;;;5.63;1.93;;;;;;;2.05;66.75;95331.91;4974136;28;20240;-84
2021/11/30 07:45:44;;;;;;;4.40;2.30;;;;;;;2.16;66.94;95331.00;4973221;28;20236;-84
2021/11/30 07:48:12;;;;;;;2.83;2.00;;;;;;;2.19;67.67;95308.69;4973784;28;20669;-83
2021/11/30 07:50:38;;;;;;;3.87;2.37;;;;;;;2.11;68.72;95312.81;4975093;28;20224;-84
2021/11/30 07:53:05;;;;;;;2.83;1.93;;;;;;;1.96;69.66;95320.00;4973998;28;20255;-82
2021/11/30 07:55:33;;;;;;;5.43;2.27;;;;;;;1.91;70.21;95312.00;4973167;28;20236;-83
2021/11/30 07:57:59;;;;;;;3.50;2.07;;;;;;;1.99;70.69;95309.59;4974238;28;20602;-82
2021/11/30 08:00:26;;;;;;;2.67;2.03;;;;;;;2.06;71.54;95331.00;4973654;28;20707;-83
2021/11/30 08:02:52;;;;;;;3.27;1.80;;;;;;;2.09;71.64;95312.97;4973520;28;20220;-84
2021/11/30 08:05:20;;;;;;;2.17;1.60;;;;;;;1.87;72.70;95297.94;4972314;28;20741;-83
2021/11/30 08:07:46;;;;;;;4.13;1.93;;;;;;;1.83;73.73;95309.28;4973169;28;20200;-83
2021/11/30 08:10:15;;;;;;;2.30;1.90;;;;;;;1.87;74.17;95303.03;4973891;28;20228;-84
2021/11/30 08:12:42;;;;;;;3.23;1.73;;;;;;;1.87;73.31;95311.44;4973958;28;20204;-83
2021/11/30 08:15:11;;;;;;;1.97;1.80;;;;;;;1.83;73.26;95282.16;4972091;28;20251;-83
2021/11/30 08:17:37;;;;;;;3.33;1.83;;;;;;;1.88;72.72;95284.31;4974540;28;20208;-83
2021/11/30 08:20:05;;;;;;;2.33;1.43;;;;;;;1.87;71.62;95288.59;4975806;28;20224;-84
2021/11/30 08:22:33;;;;;;;2.50;1.73;;;;;;;1.90;71.22;95277.38;4975721;28;20208;-83
2021/11/30 08:24:59;;;;;;;2.00;1.77;;;;;;;1.88;71.47;95297.00;4975347;28;20246;-85
2021/11/30 08:27:26;;;;;;;2.13;1.70;;;;;;;1.71;70.77;95280.69;4975772;28;20624;-84
2021/11/30 08:29:52;;;;;;;1.97;1.70;;;;;;;1.76;71.19;95283.63;4975811;28;20228;-85
2021/11/30 08:32:22;;;;;;;4.37;1.80;;;;;;;1.70;71.43;95277.34;4973850;28;20592;-84
2021/11/30 08:34:49;;;;;;;2.80;1.53;;;;;;;1.78;71.13;95255.56;4972501;28;20584;-82
2021/11/30 08:37:15;;;;;;;2.27;1.67;;;;;;;1.84;71.04;95255.84;4972566;28;20583;-83
2021/11/30 08:39:43;;;;;;;2.00;1.80;;;;;;;1.76;71.53;95247.28;4973264;28;20205;-86
2021/11/30 08:42:13;;;;;;;3.43;1.83;;;;;;;1.71;72.10;95271.34;4972280;28;20200;-85
2021/11/30 08:44:40;;;;;;;2.13;1.80;;;;;;;1.81;72.00;95275.63;4971624;28;20224;-84
2021/11/30 08:47:09;;;;;;;2.20;1.80;;;;;;;1.73;73.00;95263.59;4972802;28;20816;-82
2021/11/30 08:49:36;;;;;;;7.53;5.20;;;;;;;1.71;73.87;95245.97;4974368;28;20211;-83
2021/11/30 08:52:05;;;;;;;3.70;2.10;;;;;;;1.63;74.80;95263.56;4976537;28;20262;-84
2021/11/30 08:54:33;;;;;;;2.63;2.03;;;;;;;1.56;76.41;95261.66;4976230;28;20298;-83
2021/11/30 08:57:02;;;;;;;4.03;2.13;;;;;;;1.61;78.14;95269.69;4977280;28;20206;-84
2021/11/30 08:59:28;;;;;;;4.10;2.20;;;;;;;1.50;78.62;95231.75;4977417;28;20870;-85
2021/11/30 09:01:56;;;;;;;3.97;1.83;;;;;;;1.34;80.84;95253.34;4976695;28;20204;-85
2021/11/30 09:04:23;;;;;;;2.63;2.43;;;;;;;1.37;83.09;95252.25;4976500;28;20228;-83
2021/11/30 09:06:49;;;;;;;3.93;2.30;;;;;;;1.44;83.15;95242.41;4976343;28;20216;-84
2021/11/30 09:09:16;;;;;;;3.83;2.10;;;;;;;1.49;83.80;95237.75;4976361;28;20203;-84
2021/11/30 09:11:43;;;;;;;3.13;1.97;;;;;;;1.46;84.13;95238.00;4976825;28;20255;-84
2021/11/30 09:14:11;;;;;;;2.30;2.10;;;;;;;1.44;83.87;95255.09;4976888;28;20219;-85
2021/11/30 09:16:38;;;;;;;3.57;2.00;;;;;;;1.34;84.12;95222.09;4976900;28;20638;-85
2021/11/30 09:19:05;;;;;;;2.77;1.73;;;;;;;1.41;84.40;95225.72;4977558;28;20205;-85
2021/11/30 09:21:32;;;;;;;2.40;1.50;;;;;;;1.36;85.30;95226.09;4976743;28;20208;-86
2021/11/30 09:23:58;;;;;;;4.13;1.87;;;;;;;1.43;85.00;95203.56;4976833;28;20220;-84
2021/11/30 09:26:25;;;;;;;2.57;1.60;;;;;;;1.39;84.68;95209.81;4976780;28;20861;-83
2021/11/30 09:28:53;;;;;;;3.10;1.40;;;;;;;1.33;84.92;95203.56;4975327;28;20212;-85
2021/11/30 09:31:21;;;;;;;2.70;1.47;;;;;;;1.37;84.11;95209.94;4976531;28;20227;-85
2021/11/30 09:33:48;;;;;;;1.70;1.60;;;;;;;1.47;82.92;95204.91;4976470;28;20239;-84
2021/11/30 09:36:16;;;;;;;2.50;1.30;;;;;;;1.31;82.15;95194.47;4975272;28;20316;-85
2021/11/30 09:38:43;;;;;;;1.37;1.27;;;;;;;1.26;82.06;95201.66;4975975;28;20211;-83
2021/11/30 09:41:10;;;;;;;2.37;1.20;;;;;;;1.14;82.91;95197.63;4972239;28;20914;-85
2021/11/30 09:43:38;;;;;;;2.07;1.10;;;;;;;1.16;83.48;95198.25;4973076;28;20225;-85
2021/11/30 09:46:06;;;;;;;1.47;1.23;;;;;;;1.15;84.25;95207.63;4973328;28;20235;-86
2021/11/30 09:48:35;;;;;;;2.23;1.20;;;;;;;1.05;84.06;95194.09;4955942;28;20583;-85
2021/11/30 09:51:02;;;;;;;1.63;1.30;;;;;;;1.08;84.22;95182.91;4956032;29;20228;-85
2021/11/30 09:53:29;;;;;;;1.47;1.37;;;;;;;1.12;83.64;95185.06;4955882;28;20228;-83
2021/11/30 09:55:57;;;;;;;1.40;1.10;;;;;;;1.17;83.62;95177.84;4962363;28;20290;-82
2021/11/30 09:58:25;;;;;;;2.23;1.40;;;;;;;1.15;83.17;95176.41;4975412;28;20219;-85
2021/11/30 10:00:54;;;;;;;1.87;1.20;;;;;;;1.19;83.43;95170.13;4976233;28;20208;-84
2021/11/30 10:03:22;;;;;;;1.47;1.10;;;;;;;1.34;83.37;95146.84;4975726;28;20232;-85
2021/11/30 10:05:51;;;;;;;1.63;1.20;;;;;;;1.15;83.15;95153.59;4984841;28;20710;-83
2021/11/30 10:08:30;;;;;;;1.63;1.03;;;;;;;1.19;84.47;95148.13;4994195;28;20286;-83
2021/11/30 10:10:57;;;;;;;1.10;1.00;;;;;;;1.33;84.71;95147.75;4994715;28;20225;-83
2021/11/30 10:13:23;;;;;;;1.70;1.30;;;;;;;1.27;84.87;95137.34;4985316;28;20224;-85
2021/11/30 10:15:54;;;;;;;1.80;1.20;;;;;;;1.34;85.42;95146.84;4974207;28;20236;-84
2021/11/30 10:18:25;;;;;;;1.20;1.10;;;;;;;1.34;84.54;95131.63;4975087;28;20214;-85
2021/11/30 10:20:56;;;;;;;3.10;1.40;;;;;;;1.25;85.15;95116.38;4975046;28;20200;-85
2021/11/30 10:23:25;;;;;;;2.03;1.10;;;;;;;1.36;84.98;95127.19;4974610;28;20220;-85
2021/11/30 10:25:52;;;;;;;2.00;1.50;;;;;;;1.54;84.20;95106.28;4974953;28;20668;-85
2021/11/30 10:28:21;;;;;;;1.70;1.60;;;;;;;1.41;82.59;95101.44;4973771;28;20219;-85
2021/11/30 10:30:50;;;;;;;1.30;1.20;;;;;;;1.39;82.50;95109.19;4975044;28;20240;-86
2021/11/30 10:33:18;;;;;;;1.50;1.07;;;;;;;1.46;82.63;95095.97;4974102;28;20227;-86
2021/11/30 10:35:46;;;;;;;1.30;1.20;;;;;;;1.56;82.48;95096.75;4974139;28;20235;-85
2021/11/30 10:38:13;;;;;;;1.03;1.03;;;;;;;1.51;81.55;95094.66;4974141;28;20227;-85
2021/11/30 10:40:41;;;;;;;3.53;1.33;;;;;;;1.59;82.71;95120.13;4974385;28;20205;-84
2021/11/30 10:43:09;;;;;;;1.00;0.90;;;;;;;1.49;81.56;95110.94;4974125;28;20235;-86
2021/11/30 10:45:45;;;;;;;2.47;1.30;;;;;;;1.53;80.75;95105.47;4974236;28;20238;-85
2021/11/30 10:48:15;;;;;;;1.50;0.90;;;;;;;1.59;80.87;95094.75;4993385;28;20203;-85
2021/11/30 10:50:44;;;;;;;2.57;1.10;;;;;;;1.67;80.41;95132.16;4993247;28;20647;-86
2021/11/30 10:53:23;;;;;;;1.20;1.10;;;;;;;1.62;79.96;95086.09;4993446;28;20278;-85
2021/11/30 10:55:52;;;;;;;1.10;1.00;;;;;;;1.60;80.11;95091.31;4991994;28;20227;-86
2021/11/30 10:58:20;;;;;;;1.10;1.00;;;;;;;1.62;81.78;95088.63;4983940;28;20266;-85
2021/11/30 11:00:48;;;;;;;1.80;1.27;;;;;;;1.72;82.07;95076.75;4975373;28;20714;-86
2021/11/30 11:03:18;;;;;;;1.33;1.13;;;;;;;1.62;81.65;95069.13;4974537;28;20220;-84
2021/11/30 11:05:50;;;;;;;0.80;0.80;;;;;;;1.58;82.43;95064.47;4973420;28;20232;-85
2021/11/30 11:08:18;;;;;;;2.43;1.00;;;;;;;1.68;83.25;95063.53;4975582;28;20549;-85
2021/11/30 11:10:48;;;;;;;2.23;1.13;;;;;;;1.65;84.82;95081.56;4974224;28;20220;-85
2021/11/30 11:13:24;;;;;;;1.73;0.97;;;;;;;1.69;85.36;95060.06;4972938;28;20231;-85
2021/11/30 11:15:52;;;;;;;2.97;0.90;;;;;;;1.73;85.85;95045.38;4972562;28;20270;-85
2021/11/30 11:18:28;;;;;;;1.17;0.93;;;;;;;1.69;84.38;95044.84;4974340;28;20200;-85
2021/11/30 11:21:10;;;;;;;1.20;0.90;;;;;;;1.82;83.44;95044.53;4973897;28;20254;-84
2021/11/30 11:23:41;;;;;;;2.33;1.10;;;;;;;1.79;83.54;95037.19;4972690;28;20224;-85
2021/11/30 11:26:34;;;;;;;1.30;0.90;;;;;;;1.78;83.85;95045.75;4972987;28;20240;-85
2021/11/30 11:29:04;;;;;;;1.00;1.00;;;;;;;1.74;83.95;95035.06;4962251;28;20295;-85
2021/11/30 11:31:31;;;;;;;1.03;1.00;;;;;;;1.67;83.75;95036.56;4993569;28;20599;-85
2021/11/30 11:34:00;;;;;;;0.90;0.90;;;;;;;1.75;83.67;95030.78;4992195;28;20254;-85
2021/11/30 11:36:27;;;;;;;1.20;1.10;;;;;;;1.88;83.33;95022.91;4992221;28;20318;-84
2021/11/30 11:38:53;;;;;;;1.77;0.87;;;;;;;1.92;82.03;95024.22;4977498;28;20282;-84
2021/11/30 11:41:20;;;;;;;4.23;1.10;;;;;;;1.90;80.46;95019.28;4972964;28;20200;-84
2021/11/30 11:43:48;;;;;;;0.90;0.90;;;;;;;2.01;80.08;95029.28;4972631;28;20224;-84
2021/11/30 11:46:17;;;;;;;2.13;1.00;;;;;;;1.98;79.55;95013.50;4971960;28;20235;-84
2021/11/30 11:48:47;;;;;;;1.80;1.10;;;;;;;1.96;79.45;94998.41;4973171;28;20208;-84
2021/11/30 11:51:15;;;;;;;1.00;0.90;;;;;;;2.04;78.53;95007.88;4973303;28;20226;-84
2021/11/30 11:53:55;;;;;;;1.53;1.17;;;;;;;2.05;78.52;95006.94;4972616;28;20307;-84
2021/11/30 11:56:34;;;;;;;2.60;1.07;;;;;;;2.03;77.10;94998.66;4972346;28;20227;-84
2021/11/30 11:59:14;;;;;;;2.83;1.50;;;;;;;2.13;75.91;95006.22;4972807;28;20215;-85
2021/11/30 12:01:49;;;;;;;1.43;1.00;;;;;;;2.05;76.42;94989.97;4973505;28;20200;-84
2021/11/30 12:04:16;;;;;;;1.30;1.10;;;;;;;2.14;76.95;95002.75;4972398;28;20262;-85
2021/11/30 12:06:51;;;;;;;2.20;0.80;;;;;;;2.18;76.01;94984.56;4972516;28;20306;-85
2021/11/30 12:09:24;;;;;;;1.13;0.90;;;;;;;2.30;75.37;94985.22;4972796;28;20203;-84
2021/11/30 12:11:56;;;;;;;1.03;0.97;;;;;;;2.36;75.19;94989.72;4973274;28;20591;-85